createdAt,value
2017-07-03T00:00:00.990Z,14.90
2017-07-03T00:02:28.563Z,14.90
2017-07-03T00:04:56.094Z,14.90
2017-07-03T00:07:24.409Z,14.90
2017-07-03T00:09:51.942Z,14.90
2017-07-03T00:12:19.519Z,14.90
2017-07-03T00:14:47.065Z,14.80
2017-07-03T00:17:14.622Z,14.90
2017-07-03T00:19:42.165Z,14.90
2017-07-03T00:22:09.716Z,15.00
2017-07-03T00:24:38.029Z,15.00
2017-07-03T00:27:05.566Z,15.00
2017-07-03T00:29:33.123Z,15.00
2017-07-03T00:32:00.647Z,15.00
2017-07-03T00:34:28.207Z,15.00
2017-07-03T00:36:55.745Z,15.00
2017-07-03T00:39:23.281Z,15.00
2017-07-03T00:41:50.837Z,15.00
2017-07-03T00:44:18.372Z,15.00
2017-07-03T00:46:45.946Z,15.00
2017-07-03T00:49:13.478Z,15.00
2017-07-03T00:51:41.072Z,15.10
2017-07-03T00:54:08.600Z,15.00
2017-07-03T00:56:36.900Z,15.00
2017-07-03T00:59:04.471Z,15.00
2017-07-03T01:01:32.009Z,15.00
2017-07-03T01:04:00.319Z,15.00
2017-07-03T01:06:27.863Z,15.00
2017-07-03T01:08:55.429Z,15.00
2017-07-03T01:11:22.961Z,15.00
2017-07-03T01:13:50.489Z,15.00
2017-07-03T01:16:18.025Z,15.00
2017-07-03T01:18:45.567Z,14.90
2017-07-03T01:21:13.112Z,14.90
2017-07-03T01:23:40.646Z,15.00
2017-07-03T01:26:08.972Z,14.90
2017-07-03T01:28:36.527Z,14.90
2017-07-03T01:31:04.051Z,15.00
2017-07-03T01:33:31.623Z,14.90
2017-07-03T01:35:59.175Z,14.90
2017-07-03T01:38:26.751Z,14.80
2017-07-03T01:40:54.282Z,14.80
2017-07-03T01:43:22.618Z,14.70
2017-07-03T01:45:50.147Z,14.60
2017-07-03T01:48:17.678Z,14.70
2017-07-03T01:50:45.999Z,14.60
2017-07-03T01:53:13.522Z,14.60
2017-07-03T01:55:41.086Z,14.70
2017-07-03T01:58:08.622Z,14.60
2017-07-03T02:00:36.949Z,14.70
2017-07-03T02:03:04.484Z,14.70
2017-07-03T02:05:32.002Z,14.80
2017-07-03T02:07:59.563Z,14.80
2017-07-03T02:10:27.095Z,14.90
2017-07-03T02:12:54.644Z,14.90
2017-07-03T02:15:22.182Z,14.90
2017-07-03T02:17:49.734Z,14.90
2017-07-03T02:20:17.250Z,14.80
2017-07-03T02:22:44.802Z,14.80
2017-07-03T02:25:12.345Z,14.80
2017-07-03T02:27:39.911Z,14.70
2017-07-03T02:30:07.462Z,14.70
2017-07-03T02:32:35.000Z,14.60
2017-07-03T02:35:02.555Z,14.60
2017-07-03T02:37:30.089Z,14.60
2017-07-03T02:39:58.391Z,14.70
2017-07-03T02:42:26.510Z,14.70
2017-07-03T02:44:54.050Z,14.80
2017-07-03T02:47:21.596Z,14.80
2017-07-03T02:49:49.131Z,14.80
2017-07-03T02:52:16.719Z,14.70
2017-07-03T02:54:44.247Z,14.70
2017-07-03T02:57:11.786Z,14.60
2017-07-03T02:59:40.090Z,14.50
2017-07-03T03:02:07.645Z,14.50
2017-07-03T03:04:35.212Z,14.40
2017-07-03T03:07:02.760Z,14.50
2017-07-03T03:09:30.332Z,14.50
2017-07-03T03:11:57.859Z,14.60
2017-07-03T03:14:26.161Z,14.60
2017-07-03T03:16:53.724Z,14.60
2017-07-03T03:19:21.285Z,14.60
2017-07-03T03:21:48.850Z,14.60
2017-07-03T03:24:16.384Z,14.50
2017-07-03T03:26:44.711Z,14.50
2017-07-03T03:29:12.242Z,14.50
2017-07-03T03:31:39.779Z,14.50
2017-07-03T03:34:07.346Z,14.40
2017-07-03T03:36:34.886Z,14.40
2017-07-03T03:39:03.209Z,14.40
2017-07-03T03:41:30.756Z,14.30
2017-07-03T03:43:58.348Z,14.40
2017-07-03T03:46:25.869Z,14.40
2017-07-03T03:48:53.402Z,14.40
2017-07-03T03:51:21.715Z,14.40
2017-07-03T03:53:49.234Z,14.40
2017-07-03T03:56:17.546Z,14.50
2017-07-03T03:58:45.075Z,14.50
2017-07-03T04:01:13.426Z,14.70
2017-07-03T04:03:40.954Z,14.70
2017-07-03T04:06:08.481Z,14.70
2017-07-03T04:08:36.024Z,14.90
2017-07-03T04:11:04.323Z,15.00
2017-07-03T04:13:31.883Z,15.00
2017-07-03T04:15:59.442Z,15.10
2017-07-03T04:18:27.006Z,15.10
2017-07-03T04:20:54.596Z,15.10
2017-07-03T04:23:22.123Z,15.10
2017-07-03T04:25:49.676Z,15.10
2017-07-03T04:28:17.941Z,15.20
2017-07-03T04:30:45.485Z,15.20
2017-07-03T04:33:13.783Z,15.40
2017-07-03T04:35:41.373Z,15.40
2017-07-03T04:38:08.914Z,15.40
2017-07-03T04:40:36.461Z,15.50
2017-07-03T04:43:04.023Z,15.60
2017-07-03T04:45:31.554Z,15.60
2017-07-03T04:47:59.119Z,15.70
2017-07-03T04:50:27.438Z,15.90
2017-07-03T04:52:55.014Z,15.90
2017-07-03T04:55:22.543Z,16.00
2017-07-03T04:57:50.079Z,15.90
2017-07-03T05:00:18.399Z,15.90
2017-07-03T05:02:45.939Z,15.90
2017-07-03T05:05:13.556Z,16.00
2017-07-03T05:07:41.081Z,16.20
2017-07-03T05:10:08.658Z,16.30
2017-07-03T05:12:36.198Z,16.20
2017-07-03T05:15:03.738Z,16.10
2017-07-03T05:17:31.303Z,16.10
2017-07-03T05:19:58.873Z,16.00
2017-07-03T05:22:26.445Z,15.90
2017-07-03T05:24:54.006Z,15.90
2017-07-03T05:27:21.569Z,16.10
2017-07-03T05:29:49.100Z,16.60
2017-07-03T05:32:16.625Z,18.10
2017-07-03T05:34:44.158Z,19.10
2017-07-03T05:37:11.690Z,19.40
2017-07-03T05:39:39.471Z,20.40
2017-07-03T05:42:07.818Z,24.30
2017-07-03T05:44:35.375Z,28.30
2017-07-03T05:47:02.901Z,29.00
2017-07-03T05:49:31.249Z,24.70
2017-07-03T05:51:58.785Z,24.60
2017-07-03T05:54:26.319Z,22.40
2017-07-03T05:56:53.882Z,20.90
2017-07-03T05:59:21.418Z,19.80
2017-07-03T06:01:49.733Z,18.70
2017-07-03T06:04:17.249Z,18.60
2017-07-03T06:06:45.557Z,18.50
2017-07-03T06:09:13.126Z,18.50
2017-07-03T06:11:40.677Z,18.40
2017-07-03T06:14:08.226Z,18.40
2017-07-03T06:16:35.758Z,18.40
2017-07-03T06:19:04.061Z,18.40
2017-07-03T06:21:31.580Z,18.40
2017-07-03T06:23:59.218Z,18.40
2017-07-03T06:26:26.765Z,18.50
2017-07-03T06:28:54.323Z,18.70
2017-07-03T06:31:21.858Z,18.70
2017-07-03T06:33:49.389Z,18.80
2017-07-03T06:36:16.930Z,18.80
2017-07-03T06:38:44.466Z,18.30
2017-07-03T06:41:12.034Z,18.40
2017-07-03T06:43:39.567Z,18.60
2017-07-03T06:46:07.128Z,18.80
2017-07-03T06:48:34.646Z,18.50
2017-07-03T06:51:02.954Z,18.60
2017-07-03T06:53:30.520Z,18.60
2017-07-03T06:55:58.046Z,18.70
2017-07-03T06:58:26.356Z,18.90
2017-07-03T07:00:53.882Z,18.90
2017-07-03T07:03:22.191Z,19.10
2017-07-03T07:05:49.715Z,19.10
2017-07-03T07:08:18.020Z,19.10
2017-07-03T07:10:45.728Z,19.10
2017-07-03T07:13:13.274Z,19.20
2017-07-03T07:15:40.806Z,19.30
2017-07-03T07:18:08.341Z,19.90
2017-07-03T07:20:35.885Z,20.90
2017-07-03T07:23:04.201Z,23.00
2017-07-03T07:25:31.725Z,23.00
2017-07-03T07:28:00.049Z,23.50
2017-07-03T07:30:27.591Z,23.40
2017-07-03T07:32:55.217Z,23.20
2017-07-03T07:35:23.551Z,22.10
2017-07-03T07:37:51.071Z,22.10
2017-07-03T07:40:19.395Z,21.90
2017-07-03T07:42:46.921Z,21.90
2017-07-03T07:45:14.475Z,21.60
2017-07-03T07:47:41.990Z,21.10
2017-07-03T07:50:09.533Z,20.70
2017-07-03T07:52:37.057Z,20.60
2017-07-03T07:55:04.614Z,20.80
2017-07-03T07:57:32.284Z,20.80
2017-07-03T07:59:59.838Z,21.10
2017-07-03T08:02:27.430Z,21.40
2017-07-03T08:04:54.982Z,21.60
2017-07-03T08:07:22.517Z,22.10
2017-07-03T08:09:50.077Z,23.20
2017-07-03T08:12:17.601Z,24.10
2017-07-03T08:14:45.932Z,24.50
2017-07-03T08:17:13.477Z,24.50
2017-07-03T08:19:41.100Z,24.90
2017-07-03T08:22:08.770Z,25.80
2017-07-03T08:24:36.309Z,26.10
2017-07-03T08:27:03.877Z,26.20
2017-07-03T08:29:32.166Z,26.00
2017-07-03T08:31:59.717Z,26.00
2017-07-03T08:34:28.003Z,26.70
2017-07-03T08:36:56.351Z,27.10
2017-07-03T08:39:23.891Z,27.10
2017-07-03T08:41:51.412Z,27.30
2017-07-03T08:44:18.964Z,27.10
2017-07-03T08:46:46.506Z,26.80
2017-07-03T08:49:14.825Z,27.70
2017-07-03T08:51:42.375Z,27.70
2017-07-03T08:54:09.926Z,27.90
2017-07-03T08:56:37.457Z,27.60
2017-07-03T08:59:05.775Z,26.40
2017-07-03T09:01:33.295Z,26.40
2017-07-03T09:04:01.618Z,26.40
2017-07-03T09:06:29.162Z,26.40
2017-07-03T09:08:56.702Z,26.80
2017-07-03T09:11:25.010Z,25.10
2017-07-03T09:13:52.560Z,25.00
2017-07-03T09:16:20.107Z,25.80
2017-07-03T09:18:47.645Z,27.00
2017-07-03T09:21:15.954Z,27.80
2017-07-03T09:23:43.469Z,27.80
2017-07-03T09:26:11.794Z,28.20
2017-07-03T09:28:39.325Z,28.20
2017-07-03T09:31:07.632Z,27.10
2017-07-03T09:33:35.165Z,27.10
2017-07-03T09:36:02.728Z,27.20
2017-07-03T09:38:30.248Z,28.00
2017-07-03T09:40:57.827Z,28.40
2017-07-03T09:43:26.118Z,28.60
2017-07-03T09:45:54.409Z,28.70
2017-07-03T09:48:21.951Z,28.70
2017-07-03T09:50:50.243Z,28.20
2017-07-03T09:53:17.790Z,28.20
2017-07-03T09:55:45.330Z,26.10
2017-07-03T09:58:13.635Z,25.90
2017-07-03T10:00:41.160Z,25.90
2017-07-03T10:03:08.708Z,26.80
2017-07-03T10:05:36.250Z,27.80
2017-07-03T10:08:03.895Z,28.40
2017-07-03T10:10:31.411Z,28.90
2017-07-03T10:12:59.725Z,29.10
2017-07-03T10:15:27.264Z,29.10
2017-07-03T10:17:54.825Z,29.60
2017-07-03T10:20:22.362Z,28.60
2017-07-03T10:22:50.692Z,29.30
2017-07-03T10:25:18.215Z,29.30
2017-07-03T10:27:45.747Z,28.60
2017-07-03T10:30:13.294Z,28.60
2017-07-03T10:32:40.824Z,29.10
2017-07-03T10:35:08.411Z,29.30
2017-07-03T10:37:35.926Z,29.50
2017-07-03T10:40:03.506Z,28.40
2017-07-03T10:42:31.046Z,28.50
2017-07-03T10:44:58.590Z,28.30
2017-07-03T10:47:26.118Z,27.90
2017-07-03T10:49:53.664Z,28.00
2017-07-03T10:52:21.198Z,28.70
2017-07-03T10:54:48.754Z,28.90
2017-07-03T10:57:16.273Z,29.10
2017-07-03T10:59:44.571Z,28.80
2017-07-03T11:02:12.105Z,28.80
2017-07-03T11:04:39.625Z,28.70
2017-07-03T11:07:07.169Z,28.60
2017-07-03T11:09:34.691Z,27.90
2017-07-03T11:12:02.237Z,26.70
2017-07-03T11:14:30.522Z,25.50
2017-07-03T11:16:58.066Z,25.50
2017-07-03T11:19:25.589Z,25.20
2017-07-03T11:21:53.181Z,25.10
2017-07-03T11:24:20.707Z,25.60
2017-07-03T11:26:48.232Z,26.30
2017-07-03T11:29:15.801Z,27.10
2017-07-03T11:31:43.322Z,27.80
2017-07-03T11:34:11.667Z,27.60
2017-07-03T11:36:39.198Z,27.60
2017-07-03T11:39:06.743Z,26.80
2017-07-03T11:41:34.275Z,26.50
2017-07-03T11:44:02.581Z,25.90
2017-07-03T11:46:30.112Z,25.90
2017-07-03T11:48:59.288Z,28.10
2017-07-03T11:51:26.814Z,28.10
2017-07-03T11:53:54.363Z,29.30
2017-07-03T11:56:21.926Z,29.80
2017-07-03T11:58:49.481Z,29.90
2017-07-03T12:01:17.032Z,29.70
2017-07-03T12:03:44.571Z,28.70
2017-07-03T12:06:12.194Z,28.10
2017-07-03T12:08:39.738Z,28.60
2017-07-03T12:11:07.285Z,28.50
2017-07-03T12:13:34.806Z,28.30
2017-07-03T12:16:03.118Z,28.70
2017-07-03T12:18:30.657Z,28.70
2017-07-03T12:20:58.218Z,28.70
2017-07-03T12:23:25.742Z,28.80
2017-07-03T12:25:53.286Z,28.90
2017-07-03T12:28:20.810Z,28.80
2017-07-03T12:30:48.372Z,29.10
2017-07-03T12:33:15.895Z,28.60
2017-07-03T12:35:43.423Z,28.50
2017-07-03T12:38:10.989Z,27.30
2017-07-03T12:40:38.517Z,26.40
2017-07-03T12:43:06.062Z,25.60
2017-07-03T12:45:33.602Z,25.60
2017-07-03T12:48:01.681Z,26.40
2017-07-03T12:50:29.205Z,26.70
2017-07-03T12:52:57.642Z,27.40
2017-07-03T12:55:25.165Z,27.40
2017-07-03T12:57:52.714Z,27.80
2017-07-03T13:00:20.993Z,28.20
2017-07-03T13:02:49.294Z,27.90
2017-07-03T13:05:16.814Z,27.90
2017-07-03T13:07:45.134Z,27.70
2017-07-03T13:10:12.679Z,27.70
2017-07-03T13:12:40.201Z,27.50
2017-07-03T13:15:07.846Z,27.60
2017-07-03T13:17:35.358Z,27.80
2017-07-03T13:20:02.944Z,27.70
2017-07-03T13:22:30.482Z,27.60
2017-07-03T13:24:58.026Z,27.70
2017-07-03T13:27:25.582Z,27.50
2017-07-03T13:29:53.126Z,26.70
2017-07-03T13:32:21.437Z,26.90
2017-07-03T13:34:48.976Z,26.90
2017-07-03T13:37:18.241Z,27.10
2017-07-03T13:39:45.802Z,27.10
2017-07-03T13:42:13.350Z,27.40
2017-07-03T13:44:40.918Z,27.50
2017-07-03T13:47:08.447Z,27.40
2017-07-03T13:49:36.003Z,27.50
2017-07-03T13:52:03.546Z,27.30
2017-07-03T13:54:31.085Z,27.20
2017-07-03T13:56:59.415Z,27.30
2017-07-03T13:59:26.942Z,27.30
2017-07-03T14:01:54.562Z,27.40
2017-07-03T14:04:22.110Z,27.70
2017-07-03T14:06:49.645Z,27.80
2017-07-03T14:09:17.184Z,27.40
2017-07-03T14:11:44.732Z,27.50
2017-07-03T14:14:12.419Z,27.50
2017-07-03T14:16:39.962Z,27.20
2017-07-03T14:19:07.502Z,26.50
2017-07-03T14:21:35.840Z,26.90
2017-07-03T14:24:03.394Z,26.80
2017-07-03T14:26:30.919Z,26.70
2017-07-03T14:28:58.457Z,26.00
2017-07-03T14:31:26.735Z,24.90
2017-07-03T14:33:54.898Z,24.90
2017-07-03T14:36:23.216Z,24.50
2017-07-03T14:38:50.758Z,24.40
2017-07-03T14:41:18.330Z,24.50
2017-07-03T14:43:45.866Z,24.50
2017-07-03T14:46:13.401Z,24.60
2017-07-03T14:48:41.724Z,24.50
2017-07-03T14:51:09.247Z,24.50
2017-07-03T14:53:37.555Z,24.40
2017-07-03T14:56:05.590Z,24.40
2017-07-03T14:58:33.913Z,24.20
2017-07-03T15:01:01.438Z,24.10
2017-07-03T15:03:28.964Z,24.00
2017-07-03T15:05:56.507Z,23.70
2017-07-03T15:08:24.035Z,23.50
2017-07-03T15:10:51.560Z,23.30
2017-07-03T15:13:19.117Z,23.30
2017-07-03T15:15:47.402Z,23.20
2017-07-03T15:18:14.955Z,23.20
2017-07-03T15:20:43.272Z,23.20
2017-07-03T15:23:10.817Z,23.20
2017-07-03T15:25:38.355Z,23.30
2017-07-03T15:28:05.914Z,23.40
2017-07-03T15:30:34.204Z,23.40
2017-07-03T15:33:01.745Z,23.40
2017-07-03T15:35:30.054Z,24.00
2017-07-03T15:37:57.582Z,24.00
2017-07-03T15:40:25.891Z,24.10
2017-07-03T15:42:53.409Z,24.10
2017-07-03T15:45:21.695Z,24.30
2017-07-03T15:47:49.998Z,24.50
2017-07-03T15:50:17.532Z,24.50
2017-07-03T15:52:45.839Z,25.00
2017-07-03T15:55:13.404Z,24.90
2017-07-03T15:57:40.983Z,25.10
2017-07-03T16:00:08.549Z,25.30
2017-07-03T16:02:36.070Z,26.10
2017-07-03T16:05:03.589Z,26.70
2017-07-03T16:07:31.130Z,27.00
2017-07-03T16:09:58.674Z,27.00
2017-07-03T16:12:26.231Z,26.70
2017-07-03T16:14:53.779Z,26.60
2017-07-03T16:17:21.326Z,26.60
2017-07-03T16:19:48.842Z,26.60
2017-07-03T16:22:16.384Z,26.40
2017-07-03T16:24:43.907Z,26.40
2017-07-03T16:27:11.454Z,26.30
2017-07-03T16:29:38.969Z,26.30
2017-07-03T16:32:06.494Z,26.50
2017-07-03T16:34:34.039Z,26.60
2017-07-03T16:37:01.570Z,26.50
2017-07-03T16:39:29.895Z,26.60
2017-07-03T16:41:57.418Z,26.60
2017-07-03T16:44:24.972Z,26.50
2017-07-03T16:46:52.509Z,26.60
2017-07-03T16:49:20.850Z,25.90
2017-07-03T16:51:48.376Z,25.80
2017-07-03T16:54:15.928Z,25.70
2017-07-03T16:56:43.453Z,25.00
2017-07-03T16:59:10.970Z,24.80
2017-07-03T17:01:38.520Z,24.80
2017-07-03T17:04:06.051Z,24.80
2017-07-03T17:06:34.365Z,24.90
2017-07-03T17:09:01.894Z,24.90
2017-07-03T17:11:29.454Z,24.90
2017-07-03T17:13:56.985Z,24.90
2017-07-03T17:16:24.535Z,24.70
2017-07-03T17:18:52.055Z,24.30
2017-07-03T17:21:19.624Z,24.30
2017-07-03T17:23:47.152Z,24.30
2017-07-03T17:26:14.702Z,24.20
2017-07-03T17:28:42.987Z,24.40
2017-07-03T17:31:10.514Z,24.40
2017-07-03T17:33:38.053Z,24.30
2017-07-03T17:36:05.579Z,24.00
2017-07-03T17:38:33.125Z,23.80
2017-07-03T17:41:00.661Z,23.70
2017-07-03T17:43:28.981Z,23.80
2017-07-03T17:45:56.518Z,23.80
2017-07-03T17:48:24.070Z,23.80
2017-07-03T17:50:51.608Z,23.80
2017-07-03T17:53:19.922Z,23.70
2017-07-03T17:55:47.449Z,23.70
2017-07-03T17:58:15.797Z,23.50
2017-07-03T18:00:43.323Z,23.50
2017-07-03T18:03:10.880Z,23.30
2017-07-03T18:05:38.431Z,23.00
2017-07-03T18:08:05.959Z,22.90
2017-07-03T18:10:34.278Z,22.60
2017-07-03T18:13:01.802Z,22.60
2017-07-03T18:15:30.109Z,22.30
2017-07-03T18:17:57.624Z,22.20
2017-07-03T18:20:25.206Z,22.10
2017-07-03T18:22:52.732Z,21.90
2017-07-03T18:25:21.218Z,21.70
2017-07-03T18:27:48.763Z,21.50
2017-07-03T18:30:16.303Z,21.30
2017-07-03T18:32:43.854Z,21.20
2017-07-03T18:35:11.379Z,21.10
2017-07-03T18:37:38.943Z,21.00
2017-07-03T18:40:06.471Z,20.80
2017-07-03T18:42:34.026Z,20.80
2017-07-03T18:45:01.546Z,20.70
2017-07-03T18:47:29.093Z,20.50
2017-07-03T18:49:56.608Z,20.40
2017-07-03T18:52:24.161Z,20.30
2017-07-03T18:54:51.687Z,20.10
2017-07-03T18:57:19.213Z,20.00
2017-07-03T18:59:46.763Z,19.90
2017-07-03T19:02:15.199Z,19.90
2017-07-03T19:04:42.745Z,19.80
2017-07-03T19:07:10.265Z,19.70
2017-07-03T19:09:37.805Z,19.50
2017-07-03T19:12:06.101Z,19.40
2017-07-03T19:14:33.643Z,19.30
2017-07-03T19:17:01.938Z,19.20
2017-07-03T19:19:29.491Z,19.10
2017-07-03T19:21:57.029Z,19.10
2017-07-03T19:24:24.597Z,18.90
2017-07-03T19:26:52.125Z,18.80
2017-07-03T19:29:19.643Z,18.70
2017-07-03T19:31:47.194Z,18.60
2017-07-03T19:34:14.721Z,18.60
2017-07-03T19:36:42.276Z,18.50
2017-07-03T19:39:09.802Z,18.40
2017-07-03T19:41:37.344Z,18.20
2017-07-03T19:44:04.866Z,18.10
2017-07-03T19:46:33.190Z,18.00
2017-07-03T19:49:00.714Z,18.00
2017-07-03T19:51:28.271Z,18.00
2017-07-03T19:53:55.800Z,17.90
2017-07-03T19:56:24.114Z,17.80
2017-07-03T19:58:51.657Z,17.70
2017-07-03T20:01:19.962Z,17.60
2017-07-03T20:03:47.510Z,17.60
2017-07-03T20:06:15.034Z,17.60
2017-07-03T20:08:42.650Z,17.50
2017-07-03T20:11:10.169Z,17.40
2017-07-03T20:13:38.513Z,17.10
2017-07-03T20:16:06.042Z,17.10
2017-07-03T20:18:33.602Z,17.00
2017-07-03T20:21:01.122Z,16.90
2017-07-03T20:23:29.406Z,16.90
2017-07-03T20:25:57.723Z,17.00
2017-07-03T20:28:25.247Z,16.90
2017-07-03T20:30:53.567Z,17.00
2017-07-03T20:33:21.091Z,17.00
2017-07-03T20:35:48.655Z,17.00
2017-07-03T20:38:16.184Z,16.90
2017-07-03T20:40:44.508Z,16.80
2017-07-03T20:43:12.033Z,16.80
2017-07-03T20:45:40.346Z,16.60
2017-07-03T20:48:07.878Z,16.60
2017-07-03T20:50:35.437Z,16.50
2017-07-03T20:53:02.963Z,16.40
2017-07-03T20:55:30.496Z,16.40
2017-07-03T20:57:58.054Z,16.30
2017-07-03T21:00:25.581Z,16.20
2017-07-03T21:02:53.127Z,16.10
2017-07-03T21:05:20.707Z,16.00
2017-07-03T21:07:48.273Z,15.90
2017-07-03T21:10:15.793Z,15.70
2017-07-03T21:12:44.115Z,15.50
2017-07-03T21:15:12.174Z,15.50
2017-07-03T21:17:39.722Z,15.40
2017-07-03T21:20:07.686Z,15.30
2017-07-03T21:22:35.247Z,15.30
2017-07-03T21:25:02.785Z,15.30
2017-07-03T21:27:31.089Z,15.20
2017-07-03T21:29:58.668Z,15.20
2017-07-03T21:32:26.268Z,15.30
2017-07-03T21:34:53.896Z,15.30
2017-07-03T21:37:21.468Z,15.20
2017-07-03T21:39:49.029Z,15.20
2017-07-03T21:42:16.564Z,15.10
2017-07-03T21:44:44.109Z,15.20
2017-07-03T21:47:11.649Z,15.20
2017-07-03T21:49:39.345Z,15.30
2017-07-03T21:52:06.880Z,15.40
2017-07-03T21:54:34.441Z,15.60
2017-07-03T21:57:02.003Z,15.70
2017-07-03T21:59:29.539Z,15.70
2017-07-03T22:01:57.099Z,15.70
2017-07-03T22:04:25.400Z,15.80
2017-07-03T22:06:52.965Z,15.80
2017-07-03T22:09:20.490Z,15.80
2017-07-03T22:11:48.818Z,15.70
2017-07-03T22:14:16.353Z,15.70
2017-07-03T22:16:43.925Z,15.60
2017-07-03T22:19:11.451Z,15.40
2017-07-03T22:21:39.017Z,15.30
2017-07-03T22:24:06.716Z,15.20
2017-07-03T22:26:34.251Z,15.10
2017-07-03T22:29:01.814Z,15.10
2017-07-03T22:31:29.340Z,15.10
2017-07-03T22:33:56.904Z,15.00
2017-07-03T22:36:25.208Z,15.00
2017-07-03T22:38:52.781Z,15.00
2017-07-03T22:41:20.344Z,15.00
2017-07-03T22:43:47.878Z,15.00
2017-07-03T22:46:15.433Z,15.00
2017-07-03T22:48:42.977Z,14.90
2017-07-03T22:51:11.303Z,14.90
2017-07-03T22:53:38.824Z,14.80
2017-07-03T22:56:06.379Z,14.80
2017-07-03T22:58:34.671Z,14.70
2017-07-03T23:01:02.232Z,14.70
2017-07-03T23:03:29.769Z,14.80
2017-07-03T23:05:58.091Z,14.90
2017-07-03T23:08:25.622Z,14.90
2017-07-03T23:10:53.178Z,15.10
2017-07-03T23:13:20.721Z,15.20
2017-07-03T23:15:48.301Z,15.20
2017-07-03T23:18:15.847Z,15.30
2017-07-03T23:20:43.390Z,15.40
2017-07-03T23:23:10.943Z,15.50
2017-07-03T23:25:38.470Z,15.50
2017-07-03T23:28:06.023Z,15.50
2017-07-03T23:30:33.554Z,15.50
2017-07-03T23:33:01.112Z,15.60
2017-07-03T23:35:28.647Z,15.60
2017-07-03T23:37:56.970Z,15.60
2017-07-03T23:40:24.498Z,15.60
2017-07-03T23:42:52.049Z,15.60
2017-07-03T23:45:19.592Z,15.60
2017-07-03T23:47:47.911Z,15.50
2017-07-03T23:50:15.437Z,15.50
2017-07-03T23:52:43.769Z,15.40
2017-07-03T23:55:11.301Z,15.40
2017-07-03T23:57:38.826Z,15.40
